Time;durP1;ratioP1;P1;durP2;ratioP2;P2;SDS_P1;SDS_P2;PMS_P1;PMS_P2;Temp;Humidity;BMP_temperature;BMP_pressure;BME280_temperature;BME280_humidity;BME280_pressure;Samples;Min_cycle;Max_cycle;Signal;HPM_P1;HPM_P2
2022/09/13 00:00:43;;;;;;;2.63;2.42;;;13.30;99.90;;;;;;6233176;23;20000;-82
2022/09/13 00:03:11;;;;;;;2.65;2.45;;;13.30;99.90;;;;;;6224416;23;20021;-83
2022/09/13 00:05:37;;;;;;;2.20;2.10;;;13.20;99.90;;;;;;6197481;23;20012;-83
2022/09/13 00:08:04;;;;;;;2.17;1.98;;;13.30;99.90;;;;;;6223876;23;20343;-83
2022/09/13 00:10:33;;;;;;;2.47;2.28;;;13.20;99.90;;;;;;6197849;23;20057;-82
2022/09/13 00:12:58;;;;;;;2.50;2.30;;;13.20;99.90;;;;;;6196752;23;20464;-83
2022/09/13 00:15:24;;;;;;;2.53;1.83;;;13.20;99.90;;;;;;6223181;23;20058;-83
2022/09/13 00:17:50;;;;;;;2.08;1.90;;;13.10;99.90;;;;;;6224129;23;20058;-83
2022/09/13 00:20:16;;;;;;;2.10;1.92;;;13.10;99.90;;;;;;6224880;23;20008;-83
2022/09/13 00:22:41;;;;;;;2.70;2.50;;;13.10;99.90;;;;;;6197071;23;20000;-83
2022/09/13 00:25:07;;;;;;;2.63;2.42;;;13.10;99.90;;;;;;6228588;22;20016;-82
2022/09/13 00:27:35;;;;;;;2.40;2.20;;;13.10;99.90;;;;;;6238534;22;20011;-80
2022/09/13 00:30:01;;;;;;;2.38;2.00;;;13.10;99.90;;;;;;6201841;23;20462;-80
2022/09/13 00:32:27;;;;;;;2.65;2.42;;;13.10;99.90;;;;;;6197349;23;20004;-82
2022/09/13 00:34:52;;;;;;;2.47;2.00;;;13.10;99.90;;;;;;6199416;23;20020;-81
2022/09/13 00:37:18;;;;;;;2.47;2.28;;;13.00;99.90;;;;;;6222983;23;20004;-83
2022/09/13 00:39:44;;;;;;;1.83;1.73;;;13.00;99.90;;;;;;6222416;23;20280;-83
2022/09/13 00:42:11;;;;;;;2.50;2.30;;;13.00;99.90;;;;;;6224062;23;20509;-83
2022/09/13 00:44:56;;;;;;;2.45;2.30;;;13.00;99.90;;;;;;6197537;23;20095;-82
2022/09/13 00:47:34;;;;;;;1.98;1.88;;;13.00;99.90;;;;;;6197208;23;20012;-82
2022/09/13 00:50:14;;;;;;;1.95;1.80;;;12.90;99.90;;;;;;6224208;23;20028;-83
2022/09/13 00:52:41;;;;;;;2.22;2.05;;;12.90;99.90;;;;;;6222681;23;20090;-83
2022/09/13 00:55:35;;;;;;;6.47;2.50;;;12.90;99.90;;;;;;6203554;23;20043;-83
2022/09/13 00:58:07;;;;;;;1.90;1.80;;;12.80;99.90;;;;;;6223450;23;20015;-83
2022/09/13 01:00:33;;;;;;;2.30;1.98;;;12.90;99.90;;;;;;6228450;23;20331;-82
2022/09/13 01:03:04;;;;;;;1.80;1.70;;;12.90;99.90;;;;;;6201506;23;20051;-82
2022/09/13 01:05:35;;;;;;;2.40;2.20;;;12.80;99.90;;;;;;6201681;23;20304;-83
2022/09/13 01:08:02;;;;;;;2.00;1.90;;;12.80;99.90;;;;;;6224336;23;20008;-84
2022/09/13 01:10:30;;;;;;;2.17;1.98;;;12.70;99.90;;;;;;6227859;23;20432;-82
2022/09/13 01:13:22;;;;;;;2.10;2.00;;;12.70;99.90;;;;;;6199405;23;20009;-82
2022/09/13 01:15:48;;;;;;;2.03;1.92;;;12.60;99.90;;;;;;6208481;23;20001;-83
2022/09/13 01:18:15;;;;;;;1.95;1.85;;;12.60;99.90;;;;;;6228905;23;20008;-82
2022/09/13 01:21:06;;;;;;;2.53;2.33;;;12.60;99.90;;;;;;6227785;23;20004;-83
2022/09/13 01:24:00;;;;;;;1.95;1.85;;;12.50;99.90;;;;;;6200458;23;20008;-82
2022/09/13 01:26:56;;;;;;;2.92;2.00;;;12.50;99.90;;;;;;6199731;23;20169;-83
2022/09/13 01:29:28;;;;;;;2.60;1.92;;;12.50;99.90;;;;;;6226674;23;20000;-83
2022/09/13 01:32:11;;;;;;;2.73;2.03;;;12.50;99.90;;;;;;6198828;23;20012;-83
2022/09/13 01:34:43;;;;;;;2.08;1.67;;;12.50;99.90;;;;;;6225719;23;20251;-83
2022/09/13 01:37:17;;;;;;;1.73;1.63;;;12.40;99.90;;;;;;6227312;23;20035;-82
2022/09/13 01:40:10;;;;;;;1.67;1.58;;;12.40;99.90;;;;;;6225310;23;20375;-83
2022/09/13 01:42:46;;;;;;;1.80;1.70;;;12.40;99.90;;;;;;6224127;23;20026;-82
2022/09/13 01:45:30;;;;;;;1.60;1.48;;;12.40;99.90;;;;;;6196923;23;20543;-83
2022/09/13 01:47:58;;;;;;;1.60;1.50;;;12.40;99.90;;;;;;6222708;23;20016;-82
2022/09/13 01:50:41;;;;;;;1.85;1.75;;;12.40;99.90;;;;;;6225815;23;20028;-83
2022/09/13 01:53:16;;;;;;;3.67;1.55;;;12.40;99.90;;;;;;6223614;23;20439;-82
2022/09/13 01:56:02;;;;;;;1.77;1.67;;;12.40;99.90;;;;;;6222995;23;20005;-82
2022/09/13 01:58:52;;;;;;;2.17;2.00;;;12.40;99.90;;;;;;6233443;22;19989;-82
2022/09/13 02:01:24;;;;;;;2.00;1.90;;;12.30;99.90;;;;;;6233387;23;19997;-82
2022/09/13 02:04:02;;;;;;;1.63;1.52;;;12.40;99.90;;;;;;6225679;23;20016;-82
2022/09/13 02:07:03;;;;;;;2.20;2.00;;;12.40;99.90;;;;;;6209627;22;20028;-82
2022/09/13 02:09:36;;;;;;;1.75;1.65;;;12.30;99.90;;;;;;6152526;23;20013;-83
2022/09/13 02:12:10;;;;;;;8.68;2.17;;;12.30;99.90;;;;;;6203813;23;20001;-84
2022/09/13 02:14:41;;;;;;;1.52;1.42;;;12.30;99.90;;;;;;6203504;23;20331;-84
2022/09/13 02:17:25;;;;;;;2.72;1.80;;;12.30;99.90;;;;;;6200697;23;20071;-83
2022/09/13 02:19:58;;;;;;;1.48;1.35;;;12.30;99.90;;;;;;6171768;23;20005;-84
2022/09/13 02:22:32;;;;;;;1.65;1.55;;;12.40;99.90;;;;;;6170345;23;20096;-84
2022/09/13 02:25:06;;;;;;;1.52;1.42;;;12.30;99.90;;;;;;6168910;23;20002;-84
2022/09/13 02:27:35;;;;;;;1.83;1.40;;;12.30;99.90;;;;;;6163461;23;20012;-84
2022/09/13 02:30:05;;;;;;;4.25;1.63;;;12.30;99.90;;;;;;6161276;23;20008;-84
2022/09/13 02:32:37;;;;;;;2.28;1.40;;;12.30;99.90;;;;;;6162362;23;20008;-84
2022/09/13 02:35:05;;;;;;;3.50;1.67;;;12.30;99.90;;;;;;6161452;23;20269;-84
2022/09/13 02:37:57;;;;;;;1.50;1.40;;;12.30;99.90;;;;;;6162904;23;20006;-84
2022/09/13 02:40:28;;;;;;;1.17;1.17;;;12.30;99.90;;;;;;6163470;23;20370;-83
2022/09/13 02:43:01;;;;;;;1.38;1.27;;;12.30;99.90;;;;;;6163401;23;20042;-83
2022/09/13 02:45:51;;;;;;;1.30;1.20;;;12.30;99.90;;;;;;6161744;23;20064;-83
2022/09/13 02:48:46;;;;;;;1.50;1.40;;;12.30;99.90;;;;;;6158032;23;20065;-84
2022/09/13 02:51:39;;;;;;;1.85;1.65;;;12.40;99.90;;;;;;6162052;23;20012;-84
2022/09/13 02:54:30;;;;;;;1.38;1.27;;;12.30;99.90;;;;;;6160703;23;20318;-84
2022/09/13 02:57:30;;;;;;;1.42;1.33;;;12.30;99.90;;;;;;6162777;23;20009;-83
2022/09/13 02:59:56;;;;;;;1.73;1.38;;;12.30;99.90;;;;;;6165908;23;20001;-83
2022/09/13 03:03:05;;;;;;;1.30;1.25;;;12.20;99.90;;;;;;6163342;23;20060;-83
2022/09/13 03:05:35;;;;;;;1.35;1.30;;;12.20;99.90;;;;;;6168430;23;20001;-84
2022/09/13 03:08:18;;;;;;;1.33;1.23;;;12.20;99.90;;;;;;6165245;23;20012;-83
2022/09/13 03:11:25;;;;;;;2.28;1.42;;;12.20;99.90;;;;;;6137578;23;20005;-83
2022/09/13 03:14:15;;;;;;;1.55;1.45;;;12.20;99.90;;;;;;6194455;23;20005;-83
2022/09/13 03:17:08;;;;;;;1.20;1.20;;;12.20;99.90;;;;;;6166264;23;20005;-83
2022/09/13 03:19:51;;;;;;;1.50;1.40;;;12.20;99.90;;;;;;6165085;23;20024;-83
2022/09/13 03:26:30;;;;;;;1.40;1.30;;;12.20;99.90;;;;;;6194593;23;20012;-84
2022/09/13 03:29:32;;;;;;;1.52;1.42;;;12.20;99.90;;;;;;6195111;23;20013;-84
2022/09/13 03:32:49;;;;;;;5.93;1.40;;;12.10;99.90;;;;;;6169492;23;20009;-83
2022/09/13 03:35:28;;;;;;;2.53;1.45;;;12.10;99.90;;;;;;6164364;23;20009;-83
2022/09/13 03:38:04;;;;;;;1.55;1.45;;;12.10;99.90;;;;;;6170571;23;19989;-85
2022/09/13 03:48:11;;;;;;;1.67;1.55;;;12.00;99.90;;;;;;6155925;23;20051;-83
2022/09/13 03:50:59;;;;;;;1.70;1.60;;;12.00;99.90;;;;;;6190395;23;20368;-83
2022/09/13 03:53:31;;;;;;;1.65;1.55;;;12.00;99.90;;;;;;6165413;23;20391;-83
2022/09/13 03:55:58;;;;;;;1.40;1.30;;;12.10;99.90;;;;;;6164144;23;20044;-82
2022/09/13 03:58:25;;;;;;;1.50;1.40;;;12.10;99.90;;;;;;6166074;23;20104;-83
2022/09/13 04:00:59;;;;;;;1.50;1.40;;;12.00;99.90;;;;;;6191310;23;20013;-84
2022/09/13 04:03:32;;;;;;;1.77;1.55;;;12.10;99.90;;;;;;6166504;23;20313;-84
2022/09/13 04:05:59;;;;;;;1.30;1.20;;;12.00;99.90;;;;;;6165577;23;20040;-84
2022/09/13 04:08:28;;;;;;;2.05;1.77;;;12.00;99.90;;;;;;6165453;23;20016;-84
2022/09/13 04:10:53;;;;;;;1.60;1.50;;;12.00;99.90;;;;;;6140766;23;20399;-86
2022/09/13 04:13:21;;;;;;;1.88;1.40;;;12.00;99.90;;;;;;6193270;23;20012;-85
2022/09/13 04:15:49;;;;;;;3.72;1.90;;;12.00;99.90;;;;;;6193030;23;20004;-84
2022/09/13 04:18:15;;;;;;;2.00;1.90;;;12.00;99.90;;;;;;6166011;23;20023;-83
2022/09/13 04:20:41;;;;;;;1.50;1.40;;;12.00;99.90;;;;;;6164865;23;20012;-85
2022/09/13 04:23:07;;;;;;;2.08;1.30;;;12.00;99.90;;;;;;6165893;23;20001;-84
2022/09/13 04:25:32;;;;;;;1.58;1.48;;;12.00;99.90;;;;;;6193310;23;20047;-84
2022/09/13 04:27:59;;;;;;;1.15;1.00;;;12.00;99.90;;;;;;6194328;23;20348;-84
2022/09/13 04:30:27;;;;;;;1.60;1.50;;;12.00;99.90;;;;;;6192794;23;20043;-84
2022/09/13 04:32:55;;;;;;;1.63;1.15;;;12.00;99.90;;;;;;6167096;23;20013;-85
2022/09/13 04:35:21;;;;;;;1.48;1.38;;;12.00;99.90;;;;;;6193848;23;20068;-85
2022/09/13 04:37:46;;;;;;;1.25;1.15;;;12.00;99.90;;;;;;6167072;23;20005;-83
2022/09/13 04:40:13;;;;;;;1.95;1.40;;;12.00;99.90;;;;;;6167606;23;20001;-85
2022/09/13 04:42:39;;;;;;;1.42;1.25;;;12.10;99.90;;;;;;6194667;23;20024;-86
2022/09/13 04:45:05;;;;;;;1.10;1.10;;;12.00;99.90;;;;;;6194831;23;20001;-85
2022/09/13 04:47:31;;;;;;;1.40;1.30;;;12.10;99.90;;;;;;6194216;23;20032;-84
2022/09/13 04:49:57;;;;;;;1.48;1.38;;;12.10;99.90;;;;;;6196855;23;20016;-86
2022/09/13 04:52:22;;;;;;;2.22;1.10;;;12.10;99.90;;;;;;6173909;23;20048;-82
2022/09/13 04:54:48;;;;;;;1.42;1.33;;;12.20;99.90;;;;;;6200464;23;20480;-82
2022/09/13 04:57:15;;;;;;;1.60;1.45;;;12.20;99.90;;;;;;6203099;23;20056;-82
2022/09/13 04:59:41;;;;;;;3.17;1.52;;;12.20;99.90;;;;;;6206255;23;19997;-82
2022/09/13 05:02:07;;;;;;;1.42;1.10;;;12.20;99.90;;;;;;6206272;23;20005;-82
2022/09/13 05:04:33;;;;;;;1.73;1.50;;;12.30;99.90;;;;;;6205074;23;19997;-82
2022/09/13 05:06:59;;;;;;;1.25;1.23;;;12.30;99.90;;;;;;6204446;23;20005;-82
2022/09/13 05:09:24;;;;;;;1.17;1.17;;;12.40;99.90;;;;;;6206377;23;20000;-83
2022/09/13 05:11:50;;;;;;;1.30;1.20;;;12.40;99.90;;;;;;6205915;23;20001;-82
2022/09/13 05:14:15;;;;;;;1.55;1.23;;;12.50;99.90;;;;;;6205913;23;20080;-82
2022/09/13 05:16:41;;;;;;;2.92;1.60;;;12.50;99.90;;;;;;6205387;23;20340;-82
2022/09/13 05:19:12;;;;;;;1.00;0.98;;;12.60;99.90;;;;;;6206011;23;20048;-82
2022/09/13 05:48:14;;;;;;;1.83;0.90;;;13.30;99.90;;;;;;6095953;23;20018;-86
2022/09/13 05:51:20;;;;;;;1.40;1.30;;;13.30;99.90;;;;;;6019994;23;20063;-85
2022/09/13 05:53:50;;;;;;;1.05;0.80;;;13.30;99.90;;;;;;6163644;23;20459;-83
2022/09/13 05:56:20;;;;;;;2.53;1.60;;;13.20;99.90;;;;;;6167939;23;20005;-84
2022/09/13 06:38:02;;;;;;;1.98;1.33;;;14.50;99.90;;;;;;6193553;23;20021;-84
2022/09/13 08:08:54;;;;;;;3.05;1.08;;;20.60;76.00;;;;;;6181997;22;20822;-83
2022/09/13 08:11:22;;;;;;;1.30;0.90;;;20.90;74.30;;;;;;6209582;23;20005;-83
2022/09/13 08:13:49;;;;;;;1.15;0.93;;;21.20;73.30;;;;;;6210582;23;20004;-83
2022/09/13 08:16:17;;;;;;;1.92;1.13;;;21.50;72.00;;;;;;6234246;23;20005;-82
2022/09/13 08:18:54;;;;;;;1.25;0.98;;;21.90;71.00;;;;;;6228045;23;20489;-82
2022/09/13 08:21:20;;;;;;;2.22;1.08;;;22.30;69.40;;;;;;6177225;23;19990;-82
2022/09/13 08:23:47;;;;;;;2.83;1.25;;;22.70;67.80;;;;;;6175103;23;20009;-82
2022/09/13 08:26:13;;;;;;;1.25;1.00;;;22.90;62.50;;;;;;6176731;23;20006;-84
2022/09/13 08:28:40;;;;;;;1.20;1.10;;;22.90;62.10;;;;;;6174857;23;20018;-81
2022/09/13 08:31:16;;;;;;;4.50;1.15;;;22.90;61.80;;;;;;6175664;23;20041;-80
2022/09/13 08:33:47;;;;;;;3.47;1.10;;;22.90;60.00;;;;;;6174910;23;20016;-81
2022/09/13 08:36:13;;;;;;;0.88;0.80;;;22.80;60.20;;;;;;6176784;23;20082;-80
2022/09/13 08:38:43;;;;;;;1.58;1.15;;;22.70;60.80;;;;;;6177376;23;20013;-82
2022/09/13 08:41:40;;;;;;;0.93;0.90;;;22.70;61.00;;;;;;6179920;23;20013;-82
2022/09/13 08:44:29;;;;;;;2.88;0.80;;;22.90;60.60;;;;;;6177745;23;20044;-82
2022/09/13 08:47:05;;;;;;;1.05;1.05;;;23.10;60.40;;;;;;6169763;23;20008;-81
2022/09/13 08:49:39;;;;;;;0.60;0.60;;;23.10;60.00;;;;;;6171517;23;20006;-83
2022/09/13 08:52:18;;;;;;;0.82;0.82;;;23.20;60.10;;;;;;6168611;23;20005;-81
2022/09/13 08:54:44;;;;;;;0.95;0.70;;;23.30;60.30;;;;;;6168671;23;20005;-81
2022/09/13 08:57:44;;;;;;;1.42;1.00;;;23.30;59.80;;;;;;6169906;23;20041;-81
2022/09/13 09:00:38;;;;;;;1.23;1.10;;;23.40;60.20;;;;;;6171941;23;20002;-82
2022/09/13 09:03:23;;;;;;;1.35;1.08;;;23.60;60.10;;;;;;6177342;23;20037;-82
2022/09/13 09:05:50;;;;;;;2.53;1.05;;;23.80;59.20;;;;;;6180254;23;19994;-81
2022/09/13 09:08:30;;;;;;;3.30;1.35;;;24.00;58.70;;;;;;6173755;23;20006;-82
2022/09/13 09:10:57;;;;;;;1.58;1.13;;;24.30;57.80;;;;;;6179031;23;20057;-81
2022/09/13 09:13:56;;;;;;;3.88;1.33;;;24.40;58.10;;;;;;6181195;23;19990;-81
2022/09/13 09:16:34;;;;;;;1.00;0.85;;;24.60;57.10;;;;;;6180265;23;20009;-80
2022/09/13 09:19:33;;;;;;;7.60;2.30;;;24.30;57.80;;;;;;6181032;23;20045;-80
2022/09/13 09:22:03;;;;;;;1.10;0.93;;;24.20;58.80;;;;;;6137175;23;20004;-81
2022/09/13 09:24:32;;;;;;;6.15;1.10;;;24.30;58.50;;;;;;6170388;23;20005;-81
2022/09/13 09:27:00;;;;;;;2.50;1.38;;;24.60;57.80;;;;;;6165385;23;20005;-82
2022/09/13 09:29:31;;;;;;;1.75;1.05;;;24.80;57.20;;;;;;6169340;23;20006;-81
2022/09/13 09:32:23;;;;;;;1.25;0.88;;;24.90;57.10;;;;;;6196680;23;20008;-81
2022/09/13 09:35:08;;;;;;;1.25;0.90;;;24.90;56.90;;;;;;6172074;23;20014;-81
2022/09/13 09:37:36;;;;;;;1.55;1.10;;;24.90;55.90;;;;;;6170304;23;20009;-82
2022/09/13 09:40:07;;;;;;;1.67;1.58;;;25.00;56.20;;;;;;6170106;23;20002;-81
2022/09/13 09:42:48;;;;;;;0.98;0.80;;;25.20;56.60;;;;;;6170217;23;20433;-81
2022/09/13 09:45:32;;;;;;;0.90;0.80;;;25.40;55.40;;;;;;6179386;23;20037;-82
2022/09/13 09:48:03;;;;;;;1.48;0.98;;;25.40;55.40;;;;;;6172432;23;20036;-81
2022/09/13 09:50:33;;;;;;;1.42;1.15;;;25.40;55.50;;;;;;6169846;23;20439;-81
2022/09/13 09:53:04;;;;;;;1.42;1.00;;;25.40;54.90;;;;;;6170112;23;20001;-81
2022/09/13 09:55:34;;;;;;;2.25;1.02;;;25.40;54.70;;;;;;6169142;23;20006;-81
2022/09/13 09:58:05;;;;;;;2.05;0.80;;;25.40;54.90;;;;;;6168373;23;20052;-81
2022/09/13 10:00:34;;;;;;;0.95;0.90;;;25.30;56.00;;;;;;6167625;23;20036;-82
2022/09/13 10:03:04;;;;;;;3.40;0.80;;;25.40;55.80;;;;;;6175707;23;20234;-81
2022/09/13 10:05:31;;;;;;;0.80;0.80;;;25.50;55.00;;;;;;6181175;23;20000;-82
2022/09/13 10:08:04;;;;;;;1.90;1.05;;;25.50;55.30;;;;;;6168070;23;20452;-82
2022/09/13 10:10:37;;;;;;;3.45;0.90;;;25.60;55.20;;;;;;6192370;23;20017;-81
2022/09/13 10:13:06;;;;;;;1.88;1.00;;;25.60;55.20;;;;;;6196675;23;20005;-82
2022/09/13 10:15:34;;;;;;;0.90;0.90;;;25.70;54.70;;;;;;6198350;23;20015;-82
2022/09/13 10:18:11;;;;;;;1.02;0.90;;;25.80;54.60;;;;;;6197407;23;20015;-82
2022/09/13 10:20:37;;;;;;;1.13;1.00;;;25.90;54.50;;;;;;6197386;23;20078;-82
2022/09/13 10:23:14;;;;;;;1.20;1.02;;;26.00;54.00;;;;;;6198584;23;19997;-81
2022/09/13 10:25:43;;;;;;;0.90;0.80;;;26.10;53.60;;;;;;6176453;23;20001;-81
2022/09/13 10:28:17;;;;;;;2.70;1.27;;;26.10;53.40;;;;;;6210574;23;19989;-81
2022/09/13 10:31:01;;;;;;;1.35;1.00;;;26.20;53.00;;;;;;6200955;23;20061;-82
2022/09/13 10:33:29;;;;;;;1.58;0.88;;;26.30;52.60;;;;;;6196192;23;20005;-82
2022/09/13 10:35:58;;;;;;;0.95;0.95;;;26.30;53.10;;;;;;6197451;23;20009;-81
2022/09/13 10:38:50;;;;;;;2.20;0.85;;;26.50;52.20;;;;;;6199578;23;20005;-82
2022/09/13 10:41:25;;;;;;;2.65;1.00;;;26.60;52.30;;;;;;6142622;23;20044;-83
2022/09/13 10:43:57;;;;;;;1.10;1.00;;;26.80;52.10;;;;;;6196336;23;20028;-82
2022/09/13 10:46:23;;;;;;;0.90;0.90;;;27.00;51.30;;;;;;6170976;23;20068;-82
2022/09/13 10:48:55;;;;;;;1.05;0.98;;;27.00;51.20;;;;;;6195700;23;20028;-83
2022/09/13 10:51:20;;;;;;;;;;;27.00;51.10;;;;;;6170785;23;20084;-82
2022/09/13 10:53:46;;;;;;;3.67;1.77;;;27.00;50.80;;;;;;6196461;23;20308;-83
2022/09/13 10:56:21;;;;;;;2.53;0.90;;;27.10;50.10;;;;;;6197519;23;20440;-82
2022/09/13 10:58:48;;;;;;;1.27;1.00;;;27.10;50.30;;;;;;6196322;23;19997;-82
2022/09/13 11:02:10;;;;;;;1.48;1.38;;;27.20;50.60;;;;;;6196841;23;20057;-83
2022/09/13 11:04:44;;;;;;;1.00;1.00;;;27.30;50.50;;;;;;6152248;23;20005;-82
2022/09/13 11:07:21;;;;;;;1.05;1.02;;;27.40;50.50;;;;;;6169337;23;20005;-82
2022/09/13 11:10:25;;;;;;;0.80;0.80;;;27.60;49.50;;;;;;6172620;23;20000;-81
2022/09/13 11:13:02;;;;;;;1.60;1.00;;;27.90;49.10;;;;;;6169676;23;20077;-81
2022/09/13 11:15:33;;;;;;;3.20;0.98;;;28.50;47.30;;;;;;6171255;23;20012;-82
2022/09/13 11:18:11;;;;;;;1.83;0.90;;;28.70;46.70;;;;;;6199153;23;20009;-82
2022/09/13 11:21:03;;;;;;;4.65;1.02;;;28.90;46.80;;;;;;6195725;23;20004;-83
2022/09/13 11:23:50;;;;;;;2.95;0.93;;;28.90;46.30;;;;;;6202304;23;19989;-81
2022/09/13 11:26:40;;;;;;;1.73;1.10;;;28.80;46.30;;;;;;6176348;23;20013;-82
2022/09/13 11:29:42;;;;;;;1.83;1.00;;;28.60;46.00;;;;;;6201006;23;20036;-82
2022/09/13 11:32:26;;;;;;;0.80;0.80;;;28.40;46.30;;;;;;6199847;23;20061;-82
2022/09/13 11:35:22;;;;;;;1.85;1.10;;;28.50;46.40;;;;;;6170370;23;20005;-82
2022/09/13 11:37:57;;;;;;;0.98;0.98;;;28.60;45.60;;;;;;6169044;23;20009;-82
2022/09/13 11:40:52;;;;;;;0.93;0.73;;;28.60;45.40;;;;;;6195965;23;20012;-81
2022/09/13 11:43:23;;;;;;;1.75;0.85;;;28.50;45.70;;;;;;6169906;23;20428;-82
2022/09/13 11:46:09;;;;;;;;;;;28.50;45.10;;;;;;6170313;23;20005;-82
2022/09/13 11:49:00;;;;;;;1.08;0.80;;;28.40;45.50;;;;;;6194026;23;19931;-82
2022/09/13 11:51:55;;;;;;;1.83;0.90;;;28.30;45.70;;;;;;6194465;23;20075;-81
2022/09/13 11:54:39;;;;;;;1.05;1.02;;;28.30;46.40;;;;;;6195784;23;20020;-82
2022/09/13 11:57:14;;;;;;;0.90;0.90;;;28.20;46.20;;;;;;6193202;23;20005;-82
2022/09/13 11:59:45;;;;;;;2.45;0.80;;;28.10;45.90;;;;;;6168915;23;20045;-82
2022/09/13 12:02:28;;;;;;;;;;;28.00;45.70;;;;;;6193341;23;20008;-81
2022/09/13 12:05:04;;;;;;;1.35;0.80;;;27.90;45.60;;;;;;6207904;23;19904;-81
2022/09/13 12:07:39;;;;;;;1.40;0.80;;;27.80;46.20;;;;;;6197253;23;19997;-81
2022/09/13 12:10:36;;;;;;;1.10;0.70;;;28.00;46.50;;;;;;6196320;23;20005;-82
2022/09/13 12:13:03;;;;;;;2.10;0.88;;;28.10;46.90;;;;;;6196892;23;20428;-82
2022/09/13 12:15:40;;;;;;;1.13;1.02;;;28.20;46.30;;;;;;6199232;23;20040;-82
2022/09/13 12:18:19;;;;;;;0.80;0.80;;;28.20;46.50;;;;;;6171499;23;20032;-82
2022/09/13 12:20:53;;;;;;;1.25;0.77;;;28.00;46.60;;;;;;6197035;23;20024;-82
2022/09/13 12:23:52;;;;;;;1.02;0.77;;;28.00;46.50;;;;;;6200660;23;20001;-82
2022/09/13 12:26:29;;;;;;;1.15;0.75;;;28.20;46.70;;;;;;6187337;23;20087;-83
2022/09/13 12:29:21;;;;;;;0.60;0.60;;;28.50;46.50;;;;;;6173934;23;20061;-84
2022/09/13 12:31:46;;;;;;;0.93;0.93;;;28.60;45.60;;;;;;6176490;23;20065;-80
2022/09/13 12:34:24;;;;;;;1.17;1.10;;;28.60;45.90;;;;;;6200999;23;20049;-82
2022/09/13 12:37:08;;;;;;;0.93;0.80;;;28.60;45.90;;;;;;6199575;23;20078;-83
2022/09/13 12:39:46;;;;;;;0.90;0.90;;;28.60;45.50;;;;;;6199169;23;20044;-83
2022/09/13 12:42:58;;;;;;;0.80;0.80;;;28.50;44.60;;;;;;6172187;23;20012;-81
2022/09/13 12:45:53;;;;;;;1.63;0.80;;;28.40;44.90;;;;;;6068733;23;20185;-84
2022/09/13 12:48:54;;;;;;;2.58;1.50;;;28.20;45.10;;;;;;6197733;23;20004;-81
2022/09/13 12:51:42;;;;;;;0.93;0.90;;;28.20;45.50;;;;;;6201497;23;20467;-81
2022/09/13 12:54:59;;;;;;;0.80;0.80;;;28.20;45.50;;;;;;6199462;23;20001;-81
2022/09/13 12:57:34;;;;;;;5.90;1.33;;;28.40;44.80;;;;;;6170507;23;20005;-80
2022/09/13 13:00:20;;;;;;;1.10;0.70;;;28.40;44.70;;;;;;6170570;23;20024;-80
2022/09/13 13:03:10;;;;;;;1.25;0.60;;;28.40;44.70;;;;;;6200084;23;20081;-80
2022/09/13 13:05:51;;;;;;;2.55;0.77;;;28.40;45.00;;;;;;6199336;23;20005;-82
2022/09/13 13:08:19;;;;;;;3.50;0.65;;;28.50;45.00;;;;;;6197575;23;20324;-82
2022/09/13 13:11:02;;;;;;;2.08;1.00;;;28.60;45.10;;;;;;6173501;23;20040;-82
2022/09/13 13:13:44;;;;;;;1.30;0.95;;;28.80;45.30;;;;;;6200147;23;20059;-81
2022/09/13 13:16:31;;;;;;;1.00;0.70;;;28.90;44.80;;;;;;6201802;23;20000;-81
2022/09/13 13:19:05;;;;;;;3.20;0.80;;;29.00;44.80;;;;;;6209099;23;19997;-80
2022/09/13 13:21:37;;;;;;;0.65;0.65;;;29.10;44.40;;;;;;6177799;23;20088;-82
2022/09/13 13:24:15;;;;;;;0.80;0.80;;;29.20;44.00;;;;;;6202389;23;19997;-84
2022/09/13 13:26:41;;;;;;;1.13;0.60;;;29.10;41.40;;;;;;6172932;23;20005;-82
2022/09/13 13:29:19;;;;;;;1.17;0.70;;;29.00;42.00;;;;;;6202129;23;20028;-82
2022/09/13 13:31:59;;;;;;;0.70;0.70;;;28.70;43.20;;;;;;6201712;23;20005;-82
2022/09/13 13:34:41;;;;;;;1.45;0.77;;;28.60;44.40;;;;;;6175191;23;20092;-82
2022/09/13 13:37:07;;;;;;;0.98;0.80;;;28.60;43.70;;;;;;6200980;23;20009;-81
2022/09/13 13:39:43;;;;;;;2.08;0.55;;;28.70;42.70;;;;;;6203874;23;20008;-80
2022/09/13 13:42:25;;;;;;;0.88;0.88;;;28.90;43.40;;;;;;6183222;23;20012;-81
2022/09/13 13:44:51;;;;;;;0.75;0.65;;;29.20;43.60;;;;;;6175443;23;20005;-81
2022/09/13 13:47:17;;;;;;;2.42;0.85;;;29.20;44.30;;;;;;6173717;23;20031;-81
2022/09/13 13:50:02;;;;;;;0.63;0.60;;;29.00;44.80;;;;;;6200688;23;20001;-81
2022/09/13 13:52:36;;;;;;;1.27;0.70;;;28.80;45.00;;;;;;6200134;23;20052;-81
2022/09/13 13:55:41;;;;;;;0.80;0.63;;;28.90;45.30;;;;;;6176579;23;20009;-81
2022/09/13 13:58:06;;;;;;;0.70;0.70;;;29.20;44.60;;;;;;6201973;23;20001;-81
2022/09/13 14:00:35;;;;;;;0.65;0.65;;;29.10;44.10;;;;;;6203546;23;20008;-81
2022/09/13 14:03:00;;;;;;;1.30;0.80;;;29.10;44.70;;;;;;6211227;23;19989;-81
2022/09/13 14:05:48;;;;;;;2.45;0.90;;;29.20;44.50;;;;;;6178038;23;20002;-81
2022/09/13 14:08:13;;;;;;;0.70;0.70;;;29.30;43.80;;;;;;6200384;23;20412;-81
2022/09/13 14:10:44;;;;;;;0.70;0.70;;;29.10;43.20;;;;;;6201502;23;20016;-80
2022/09/13 14:13:31;;;;;;;0.80;0.70;;;28.90;43.40;;;;;;6171824;23;20001;-81
2022/09/13 14:16:08;;;;;;;0.70;0.70;;;28.70;42.80;;;;;;6174648;23;20089;-81
2022/09/13 14:19:06;;;;;;;0.70;0.70;;;28.50;43.10;;;;;;6202312;23;19997;-80
2022/09/13 14:21:32;;;;;;;1.50;0.80;;;28.20;43.50;;;;;;6174140;23;20009;-80
2022/09/13 14:24:23;;;;;;;0.55;0.52;;;28.00;43.40;;;;;;6199863;23;20028;-80
2022/09/13 14:26:52;;;;;;;0.70;0.70;;;27.90;43.90;;;;;;6176568;23;20060;-80
2022/09/13 14:29:21;;;;;;;1.95;0.65;;;27.80;44.10;;;;;;6201644;23;20001;-80
2022/09/13 14:31:54;;;;;;;1.35;0.80;;;27.80;44.70;;;;;;6201900;23;20076;-80
2022/09/13 14:34:38;;;;;;;1.40;0.60;;;27.80;44.70;;;;;;6201998;23;20005;-80
2022/09/13 14:37:24;;;;;;;0.63;0.63;;;27.80;45.50;;;;;;6174391;23;20056;-80
2022/09/13 14:39:59;;;;;;;0.85;0.85;;;27.80;46.00;;;;;;6205487;23;20005;-79
2022/09/13 14:42:25;;;;;;;2.05;0.77;;;27.70;46.30;;;;;;6209072;23;20426;-79
2022/09/13 14:44:51;;;;;;;1.02;0.80;;;27.70;45.80;;;;;;6210206;23;20040;-79
2022/09/13 14:47:35;;;;;;;0.60;0.60;;;27.70;45.90;;;;;;6210336;23;20037;-80
2022/09/13 14:50:14;;;;;;;2.28;0.80;;;27.70;45.80;;;;;;6209525;23;19989;-79
2022/09/13 14:52:57;;;;;;;1.30;0.75;;;27.60;46.10;;;;;;6179018;23;20012;-80
2022/09/13 14:55:29;;;;;;;0.85;0.60;;;27.60;46.00;;;;;;6199382;23;20001;-79
2022/09/13 14:58:02;;;;;;;;;;;27.60;46.50;;;;;;6199573;23;20019;-80
2022/09/13 15:00:28;;;;;;;3.35;0.60;;;27.80;46.70;;;;;;6200538;23;19928;-80
2022/09/13 15:03:01;;;;;;;1.02;0.60;;;28.00;47.20;;;;;;6197680;23;20013;-80
2022/09/13 15:05:31;;;;;;;0.80;0.80;;;28.20;46.20;;;;;;6199051;23;19997;-80
2022/09/13 15:07:56;;;;;;;3.80;0.90;;;28.00;46.50;;;;;;6201182;23;20001;-80
2022/09/13 15:10:25;;;;;;;3.60;0.70;;;27.70;47.10;;;;;;6202173;23;20015;-79
2022/09/13 15:12:57;;;;;;;2.63;0.90;;;27.50;46.80;;;;;;6200788;23;20029;-80
2022/09/13 15:15:26;;;;;;;;;;;27.30;47.10;;;;;;6174257;23;20376;-80
2022/09/13 15:18:00;;;;;;;1.05;0.82;;;27.20;47.40;;;;;;6199389;23;19904;-80
2022/09/13 15:20:30;;;;;;;2.28;0.68;;;27.00;47.50;;;;;;6199531;23;20419;-79
2022/09/13 15:22:56;;;;;;;1.08;0.80;;;26.80;48.20;;;;;;6198256;23;20052;-80
2022/09/13 15:25:28;;;;;;;0.60;0.60;;;26.50;48.40;;;;;;6171539;23;20012;-80
2022/09/13 15:27:55;;;;;;;1.30;0.93;;;26.40;49.10;;;;;;6198118;23;20404;-80
2022/09/13 15:30:29;;;;;;;0.60;0.60;;;26.30;49.20;;;;;;6197005;23;19998;-80
2022/09/13 15:33:10;;;;;;;1.15;0.80;;;26.30;49.20;;;;;;6198258;23;20063;-80
2022/09/13 15:35:43;;;;;;;0.82;0.70;;;26.30;49.50;;;;;;6191850;23;20312;-79
2022/09/13 15:38:32;;;;;;;1.67;0.60;;;26.30;49.50;;;;;;6192724;23;20008;-80
2022/09/13 15:41:01;;;;;;;0.77;0.73;;;26.30;49.50;;;;;;6167217;23;20001;-80
2022/09/13 15:43:28;;;;;;;0.88;0.88;;;26.20;49.30;;;;;;6191924;23;20020;-80
2022/09/13 15:45:56;;;;;;;0.55;0.52;;;26.10;49.20;;;;;;6194108;23;19997;-79
2022/09/13 15:48:34;;;;;;;0.60;0.60;;;26.00;48.80;;;;;;6166168;23;20054;-79
2022/09/13 15:51:11;;;;;;;1.45;1.35;;;25.90;48.10;;;;;;6193948;23;20001;-79
2022/09/13 15:53:40;;;;;;;1.50;1.40;;;25.80;48.40;;;;;;6191342;23;20001;-79
2022/09/13 15:56:07;;;;;;;1.92;1.60;;;25.70;48.80;;;;;;6191806;23;20008;-79
2022/09/13 15:58:34;;;;;;;1.35;1.27;;;25.60;49.30;;;;;;6194285;23;19981;-80
2022/09/13 16:01:00;;;;;;;1.33;1.23;;;25.50;49.60;;;;;;6196449;23;20028;-81
2022/09/13 16:03:26;;;;;;;2.03;1.60;;;25.40;50.30;;;;;;6184173;23;20001;-82
2022/09/13 16:05:52;;;;;;;1.38;1.30;;;25.30;51.40;;;;;;6193827;23;20001;-82
2022/09/13 16:08:18;;;;;;;1.52;1.42;;;25.00;52.00;;;;;;6195557;23;20005;-81
2022/09/13 16:10:44;;;;;;;2.70;1.90;;;24.90;53.00;;;;;;6178375;23;20016;-81
2022/09/13 16:13:09;;;;;;;1.73;1.63;;;24.70;53.80;;;;;;6204425;23;20029;-81
2022/09/13 16:15:35;;;;;;;1.70;1.60;;;24.60;54.60;;;;;;6195660;23;20051;-81
2022/09/13 16:18:01;;;;;;;1.58;1.48;;;24.40;55.20;;;;;;6194463;23;20008;-81